Time;durP1;ratioP1;P1;durP2;ratioP2;P2;SDS_P1;SDS_P2;PMS_P1;PMS_P2;Temp;Humidity;BMP_temperature;BMP_pressure;BME280_temperature;BME280_humidity;BME280_pressure;Samples;Min_cycle;Max_cycle;Signal;HPM_P1;HPM_P2
2024/02/10 00:01:18;;;;;;;7.40;4.00;;;;;;;10.97;100.00;98549.19;6279056;28;20075;-83
2024/02/10 00:04:19;;;;;;;9.88;4.47;;;;;;;10.95;100.00;98548.50;6279111;28;20044;-84
2024/02/10 00:07:22;;;;;;;10.13;3.63;;;;;;;11.08;100.00;98554.31;6279176;28;20131;-85
2024/02/10 00:10:27;;;;;;;8.73;4.40;;;;;;;11.05;100.00;98559.78;6278719;28;20048;-84
2024/02/10 00:13:29;;;;;;;9.48;4.65;;;;;;;10.90;100.00;98553.31;6296554;28;20462;-83
2024/02/10 00:16:33;;;;;;;15.70;4.40;;;;;;;10.91;100.00;98556.72;6296551;28;20048;-85
2024/02/10 00:19:36;;;;;;;10.45;3.78;;;;;;;10.94;100.00;98572.97;6296060;28;20500;-85
2024/02/10 00:22:40;;;;;;;9.15;4.43;;;;;;;10.84;100.00;98556.44;6296460;28;20091;-83
2024/02/10 00:25:41;;;;;;;7.68;3.92;;;;;;;10.78;100.00;98567.41;6278945;28;20049;-83
2024/02/10 00:28:43;;;;;;;11.05;4.20;;;;;;;10.71;100.00;98574.09;6278353;28;20496;-83
2024/02/10 00:31:44;;;;;;;5.20;3.47;;;;;;;10.62;100.00;98573.91;6278405;28;20458;-83
2024/02/10 00:34:48;;;;;;;9.13;3.88;;;;;;;10.63;100.00;98578.19;6299186;28;20043;-84
2024/02/10 00:37:49;;;;;;;9.15;4.47;;;;;;;10.60;100.00;98580.22;6328199;28;20047;-83
2024/02/10 00:40:52;;;;;;;9.35;4.43;;;;;;;10.80;100.00;98587.19;6313159;28;20048;-84
2024/02/10 00:43:55;;;;;;;7.40;4.03;;;;;;;10.49;100.00;98587.16;6279221;28;20068;-82
2024/02/10 00:47:12;;;;;;;10.48;4.75;;;;;;;10.63;100.00;98585.19;6296193;28;20063;-84
2024/02/10 00:50:16;;;;;;;10.20;4.35;;;;;;;10.61;100.00;98589.72;6277886;28;20056;-83
2024/02/10 00:53:19;;;;;;;12.50;4.55;;;;;;;10.57;100.00;98585.72;6277910;28;20405;-83
2024/02/10 00:56:20;;;;;;;6.70;3.97;;;;;;;10.56;100.00;98597.09;6278092;28;20055;-84
2024/02/10 00:59:23;;;;;;;8.85;4.57;;;;;;;10.54;100.00;98593.78;6280299;28;20049;-82
2024/02/10 01:02:24;;;;;;;9.13;4.28;;;;;;;10.58;100.00;98592.56;6320728;28;20539;-80
2024/02/10 01:05:25;;;;;;;10.02;4.57;;;;;;;10.45;100.00;98593.59;6302641;28;20100;-83
2024/02/10 01:08:26;;;;;;;6.95;4.20;;;;;;;10.51;100.00;98586.22;6302559;28;20590;-84
2024/02/10 01:11:32;;;;;;;9.30;4.35;;;;;;;10.41;100.00;98579.16;6320394;28;20051;-84
2024/02/10 01:14:33;;;;;;;12.38;4.65;;;;;;;10.47;100.00;98591.69;6320307;28;20051;-84
2024/02/10 01:17:33;;;;;;;12.05;4.40;;;;;;;10.42;100.00;98593.88;6320399;28;20052;-83
2024/02/10 01:20:34;;;;;;;9.90;4.45;;;;;;;10.40;100.00;98595.78;6320384;28;20059;-84
2024/02/10 01:23:39;;;;;;;8.88;5.00;;;;;;;10.53;100.00;98592.97;6302141;28;20492;-83
2024/02/10 01:26:40;;;;;;;11.27;4.65;;;;;;;10.53;100.00;98602.56;6302317;28;20048;-84
2024/02/10 01:29:44;;;;;;;15.80;4.65;;;;;;;10.32;100.00;98597.38;6302116;28;20055;-83
2024/02/10 01:32:44;;;;;;;7.47;4.10;;;;;;;10.38;100.00;98597.69;6302123;28;20109;-84
2024/02/10 01:35:45;;;;;;;9.95;4.43;;;;;;;10.39;100.00;98595.91;6320016;28;20056;-83
2024/02/10 01:38:51;;;;;;;8.02;4.20;;;;;;;10.41;100.00;98594.81;6302383;28;20055;-82
2024/02/10 01:41:57;;;;;;;9.65;4.25;;;;;;;10.54;100.00;98589.38;6302005;28;20461;-82
2024/02/10 01:45:00;;;;;;;7.78;4.35;;;;;;;10.49;100.00;98599.38;6302202;28;20109;-84
2024/02/10 01:48:05;;;;;;;8.50;4.18;;;;;;;10.34;100.00;98587.66;6301894;28;20086;-84
2024/02/10 01:51:08;;;;;;;8.43;3.95;;;;;;;10.47;100.00;98590.88;6302265;28;20055;-84
2024/02/10 01:54:09;;;;;;;8.48;4.25;;;;;;;10.32;100.00;98581.72;6298225;28;20040;-82
2024/02/10 01:57:14;;;;;;;11.65;5.32;;;;;;;10.49;100.00;98583.75;6281831;28;20052;-82
2024/02/10 02:00:17;;;;;;;8.77;4.40;;;;;;;10.34;100.00;98590.25;6281572;28;20052;-82
2024/02/10 02:03:19;;;;;;;7.18;4.13;;;;;;;10.42;100.00;98587.84;6299296;28;20052;-82
2024/02/10 02:06:20;;;;;;;11.95;4.18;;;;;;;10.30;100.00;98592.28;6299117;28;20480;-83
2024/02/10 02:09:21;;;;;;;12.68;4.53;;;;;;;10.24;100.00;98590.97;6296156;28;20135;-82
2024/02/10 02:12:24;;;;;;;8.68;4.22;;;;;;;10.36;100.00;98590.94;6294490;28;20044;-82
2024/02/10 02:15:29;;;;;;;6.03;4.13;;;;;;;10.41;100.00;98586.16;6291417;28;20360;-83
2024/02/10 02:18:30;;;;;;;10.48;4.45;;;;;;;10.48;100.00;98587.31;6293689;28;20051;-83
2024/02/10 02:21:32;;;;;;;8.80;4.55;;;;;;;10.35;100.00;98584.88;6296329;28;20098;-83
2024/02/10 02:24:35;;;;;;;9.25;4.57;;;;;;;10.42;100.00;98586.03;6293766;28;20101;-84
2024/02/10 02:27:37;;;;;;;8.18;4.30;;;;;;;10.38;100.00;98589.03;6311894;28;20052;-83
2024/02/10 02:30:40;;;;;;;6.25;3.75;;;;;;;10.41;100.00;98580.94;6316250;28;20098;-83
2024/02/10 02:33:41;;;;;;;9.80;3.80;;;;;;;10.29;100.00;98569.72;6323144;28;20044;-82
2024/02/10 02:36:43;;;;;;;10.25;3.63;;;;;;;10.33;100.00;98562.50;6305323;28;20491;-81
2024/02/10 02:39:44;;;;;;;6.25;3.45;;;;;;;10.21;100.00;98556.50;6321961;28;20492;-84
2024/02/10 02:42:46;;;;;;;9.20;4.07;;;;;;;10.19;100.00;98545.38;6280286;28;20067;-84
2024/02/10 02:45:49;;;;;;;9.10;3.97;;;;;;;10.20;100.00;98558.28;6296700;28;20059;-83
2024/02/10 02:48:53;;;;;;;8.07;4.45;;;;;;;10.18;100.00;98569.81;6318462;28;20102;-84
2024/02/10 02:51:54;;;;;;;13.38;5.35;;;;;;;10.15;100.00;98565.69;6280357;28;20040;-81
2024/02/10 02:54:59;;;;;;;9.00;5.05;;;;;;;10.25;100.00;98579.59;6280041;28;20056;-82
2024/02/10 02:58:03;;;;;;;9.20;4.68;;;;;;;10.27;100.00;98588.13;6280148;28;20052;-81
2024/02/10 03:01:05;;;;;;;6.47;4.25;;;;;;;10.31;100.00;98587.88;6295829;28;21213;-83
2024/02/10 03:04:06;;;;;;;5.20;3.80;;;;;;;10.11;100.00;98586.88;6289690;28;20044;-81
2024/02/10 03:07:06;;;;;;;7.82;4.78;;;;;;;10.11;100.00;98581.69;6321634;28;20400;-82
2024/02/10 03:10:08;;;;;;;12.95;5.63;;;;;;;10.00;100.00;98570.34;6322564;28;20048;-81
2024/02/10 03:13:11;;;;;;;8.85;5.63;;;;;;;10.03;100.00;98580.53;6319011;28;20087;-81
2024/02/10 03:16:17;;;;;;;13.93;6.13;;;;;;;9.98;100.00;98554.03;6279016;28;20054;-83
2024/02/10 03:19:18;;;;;;;11.13;5.95;;;;;;;10.02;100.00;98555.41;6278808;28;20137;-84
2024/02/10 03:22:21;;;;;;;11.38;6.65;;;;;;;10.11;100.00;98553.00;6300000;28;20044;-83
2024/02/10 03:25:22;;;;;;;14.13;7.03;;;;;;;10.18;100.00;98556.78;6304296;28;20076;-83
2024/02/10 03:28:24;;;;;;;10.48;6.13;;;;;;;10.17;100.00;98561.16;6304229;28;20050;-84
2024/02/10 03:31:25;;;;;;;;;;;;;;;10.14;100.00;98547.56;6322953;28;20058;-82
2024/02/10 03:34:26;;;;;;;13.93;6.43;;;;;;;10.08;100.00;98551.50;6303912;28;19923;-83
2024/02/10 03:37:29;;;;;;;15.02;7.10;;;;;;;10.13;100.00;98540.66;6304440;28;20545;-82
2024/02/10 03:40:29;;;;;;;18.48;7.85;;;;;;;10.16;100.00;98558.69;6300202;28;20105;-81
2024/02/10 03:43:30;;;;;;;29.80;7.78;;;;;;;10.21;100.00;98565.16;6296542;28;20045;-82
2024/02/10 03:46:33;;;;;;;13.23;6.93;;;;;;;10.08;100.00;98541.06;6284515;28;20048;-83
2024/02/10 03:49:34;;;;;;;15.35;8.05;;;;;;;9.92;100.00;98556.31;6319185;28;20415;-84
2024/02/10 03:52:40;;;;;;;13.27;7.53;;;;;;;9.85;100.00;98563.81;6303765;28;20097;-81
2024/02/10 03:55:43;;;;;;;16.10;8.00;;;;;;;9.95;100.00;98553.47;6303224;28;20052;-85
2024/02/10 03:58:48;;;;;;;40.03;15.73;;;;;;;9.96;100.00;98550.72;6295909;28;20416;-86
2024/02/10 04:01:49;;;;;;;18.10;9.85;;;;;;;9.78;100.00;98537.44;6299793;28;20470;-82
2024/02/10 04:04:50;;;;;;;17.10;7.63;;;;;;;9.89;100.00;98539.16;6303962;28;20044;-85
2024/02/10 04:07:52;;;;;;;17.77;7.80;;;;;;;9.97;100.00;98547.16;6303176;28;20058;-84
2024/02/10 04:10:53;;;;;;;21.67;8.05;;;;;;;9.96;100.00;98532.47;6312011;28;20040;-85
2024/02/10 04:13:54;;;;;;;13.30;6.53;;;;;;;9.95;100.00;98538.66;6300780;28;20051;-86
2024/02/10 04:16:55;;;;;;;11.27;6.32;;;;;;;9.91;100.00;98537.25;6294065;28;20059;-85
2024/02/10 04:20:00;;;;;;;19.63;6.47;;;;;;;9.96;100.00;98539.47;6300523;28;20630;-84
2024/02/10 04:23:05;;;;;;;16.58;6.95;;;;;;;10.02;100.00;98546.78;6291041;28;20037;-85
2024/02/10 04:26:06;;;;;;;15.70;5.60;;;;;;;9.77;100.00;98532.34;6314471;28;20048;-85
2024/02/10 04:29:07;;;;;;;9.52;5.53;;;;;;;9.86;100.00;98537.63;6312669;28;20523;-83
2024/02/10 04:32:08;;;;;;;11.15;6.18;;;;;;;9.95;100.00;98523.03;6284897;28;20040;-86
2024/02/10 04:35:09;;;;;;;8.77;5.20;;;;;;;9.93;100.00;98517.09;6302535;28;20044;-81
2024/02/10 04:38:13;;;;;;;10.63;6.25;;;;;;;10.03;100.00;98509.38;6303275;28;20560;-82
2024/02/10 04:41:14;;;;;;;13.35;6.43;;;;;;;9.97;100.00;98499.44;6297139;28;20453;-81
2024/02/10 04:44:15;;;;;;;13.40;6.13;;;;;;;10.04;100.00;98506.59;6296958;28;20048;-81
2024/02/10 04:47:16;;;;;;;13.63;6.32;;;;;;;9.87;100.00;98510.63;6292836;28;20079;-82
2024/02/10 04:50:17;;;;;;;10.85;5.65;;;;;;;9.88;100.00;98508.84;6301522;28;20515;-81
2024/02/10 04:53:18;;;;;;;14.02;5.25;;;;;;;9.81;100.00;98524.16;6300740;28;20424;-81
2024/02/10 04:56:19;;;;;;;12.90;5.75;;;;;;;9.86;100.00;98523.75;6300824;28;20056;-81
2024/02/10 04:59:25;;;;;;;8.93;4.60;;;;;;;9.85;100.00;98522.13;6311213;28;20123;-81
2024/02/10 05:02:25;;;;;;;15.90;6.30;;;;;;;9.91;100.00;98513.81;6300076;28;20401;-82
2024/02/10 05:05:26;;;;;;;13.52;5.15;;;;;;;9.83;100.00;98500.59;6315515;28;20047;-83
2024/02/10 05:08:27;;;;;;;13.88;5.63;;;;;;;9.80;100.00;98498.22;6304444;28;20135;-81
2024/02/10 05:11:31;;;;;;;14.23;5.88;;;;;;;9.89;100.00;98489.66;6311358;28;20051;-82
2024/02/10 05:14:32;;;;;;;15.50;5.05;;;;;;;9.82;100.00;98488.50;6316027;28;20044;-82
2024/02/10 05:17:33;;;;;;;11.27;4.68;;;;;;;9.80;100.00;98482.59;6307298;28;20079;-83
2024/02/10 05:20:34;;;;;;;12.05;4.57;;;;;;;9.84;100.00;98484.84;6296078;28;20052;-82
2024/02/10 05:23:37;;;;;;;9.35;4.75;;;;;;;9.79;100.00;98499.19;6311393;28;20069;-81
2024/02/10 05:26:40;;;;;;;10.73;4.35;;;;;;;9.78;100.00;98493.16;6329569;28;20580;-81
2024/02/10 05:29:41;;;;;;;9.82;4.88;;;;;;;9.73;100.00;98477.06;6296078;28;20399;-81
2024/02/10 05:32:44;;;;;;;8.82;4.78;;;;;;;9.81;100.00;98474.66;6301051;28;20127;-82
2024/02/10 05:35:46;;;;;;;9.70;4.40;;;;;;;9.86;100.00;98462.09;6302278;28;20491;-82
2024/02/10 05:38:50;;;;;;;7.00;4.30;;;;;;;9.85;100.00;98465.63;6300667;28;20123;-81
2024/02/10 05:41:52;;;;;;;10.25;4.50;;;;;;;9.86;100.00;98482.94;6325128;28;20048;-82
2024/02/10 05:44:57;;;;;;;7.38;4.25;;;;;;;9.78;100.00;98471.47;6304576;28;20096;-81
2024/02/10 05:47:58;;;;;;;7.50;4.40;;;;;;;9.83;100.00;98475.34;6323162;28;20052;-82
2024/02/10 05:50:59;;;;;;;10.95;3.55;;;;;;;9.84;100.00;98486.59;6319187;28;20477;-80
2024/02/10 05:54:00;;;;;;;7.85;3.75;;;;;;;9.96;100.00;98482.16;6320002;28;20491;-83
2024/02/10 05:57:02;;;;;;;15.48;4.82;;;;;;;9.85;100.00;98472.63;6324191;28;20076;-82
2024/02/10 06:00:09;;;;;;;6.45;4.07;;;;;;;9.97;100.00;98487.25;6300606;28;20419;-82
2024/02/10 06:03:10;;;;;;;9.07;4.28;;;;;;;9.86;100.00;98464.69;6304404;28;20047;-83
2024/02/10 06:06:14;;;;;;;10.57;4.32;;;;;;;9.92;100.00;98470.34;6302981;28;20052;-82
2024/02/10 06:09:15;;;;;;;18.42;4.97;;;;;;;9.97;100.00;98462.97;6324656;28;20044;-82
2024/02/10 06:12:16;;;;;;;21.43;4.23;;;;;;;9.94;100.00;98461.44;6301279;28;20106;-83
2024/02/10 06:15:18;;;;;;;5.47;3.40;;;;;;;10.01;100.00;98469.59;6305626;28;20052;-80
2024/02/10 06:18:19;;;;;;;;;;;;;;;10.06;100.00;98472.59;6310530;28;20060;-82
2024/02/10 06:21:21;;;;;;;8.45;3.63;;;;;;;10.06;100.00;98467.41;6300886;28;20006;-82
2024/02/10 06:24:27;;;;;;;11.07;4.45;;;;;;;10.01;100.00;98459.16;6315679;28;20070;-83
2024/02/10 06:27:34;;;;;;;6.82;3.45;;;;;;;10.07;100.00;98462.06;6300391;28;20051;-82
2024/02/10 06:30:35;;;;;;;9.00;4.88;;;;;;;9.95;100.00;98470.91;6317467;28;20048;-82
2024/02/10 06:33:35;;;;;;;9.65;4.05;;;;;;;9.97;100.00;98455.16;6305372;28;20546;-82
2024/02/10 06:36:37;;;;;;;9.52;3.85;;;;;;;10.03;100.00;98458.06;6305881;28;20055;-82
2024/02/10 06:39:37;;;;;;;8.60;3.17;;;;;;;9.99;100.00;98454.06;6306969;28;20053;-81
2024/02/10 06:42:38;;;;;;;6.43;3.40;;;;;;;10.00;100.00;98454.88;6309577;28;20071;-84
2024/02/10 06:45:40;;;;;;;4.40;3.28;;;;;;;10.17;100.00;98440.44;6311277;28;20468;-84
2024/02/10 06:48:42;;;;;;;12.07;3.75;;;;;;;10.08;100.00;98455.06;6308098;28;20407;-83
2024/02/10 06:51:46;;;;;;;9.43;3.65;;;;;;;10.15;100.00;98464.03;6309987;28;20052;-83
2024/02/10 06:54:50;;;;;;;5.93;3.17;;;;;;;10.25;100.00;98453.63;6322374;28;20052;-83
2024/02/10 06:57:55;;;;;;;11.65;4.25;;;;;;;10.21;100.00;98462.66;6323520;28;20052;-82
2024/02/10 07:00:58;;;;;;;5.68;3.17;;;;;;;10.14;100.00;98470.19;6322456;28;20323;-84
2024/02/10 07:03:58;;;;;;;10.10;3.15;;;;;;;10.19;100.00;98472.41;6322304;28;20129;-84
2024/02/10 07:07:03;;;;;;;7.57;3.90;;;;;;;10.30;100.00;98469.75;6323223;28;20052;-83
2024/02/10 07:10:05;;;;;;;6.75;2.97;;;;;;;10.17;100.00;98479.53;6322135;28;20416;-84
2024/02/10 07:13:07;;;;;;;8.10;3.67;;;;;;;10.31;100.00;98479.22;6322553;28;20051;-85
2024/02/10 07:16:08;;;;;;;7.45;3.55;;;;;;;10.16;100.00;98480.50;6322517;28;20047;-85
2024/02/10 07:19:11;;;;;;;6.57;3.08;;;;;;;10.23;100.00;98485.06;6322016;28;20060;-84
2024/02/10 07:22:15;;;;;;;9.88;3.88;;;;;;;10.27;100.00;98488.22;6322147;28;20488;-84
2024/02/10 07:25:16;;;;;;;6.28;3.13;;;;;;;10.44;100.00;98494.66;6309067;28;20492;-85
2024/02/10 07:28:21;;;;;;;5.88;3.38;;;;;;;10.25;100.00;98500.56;6285028;28;20090;-82
2024/02/10 07:31:22;;;;;;;6.72;3.33;;;;;;;10.26;100.00;98497.81;6297505;28;20044;-83
2024/02/10 07:34:26;;;;;;;5.90;3.70;;;;;;;10.35;100.00;98511.06;6279502;28;20520;-84
2024/02/10 07:37:27;;;;;;;6.55;2.58;;;;;;;10.47;100.00;98494.38;6285398;28;20056;-82
2024/02/10 07:40:28;;;;;;;5.88;2.88;;;;;;;10.41;100.00;98498.31;6313649;28;20082;-83
2024/02/10 07:43:31;;;;;;;12.02;3.65;;;;;;;10.37;100.00;98485.69;6300357;28;20136;-84
2024/02/10 07:46:34;;;;;;;;;;;;;;;10.52;100.00;98501.81;6317109;28;20130;-83
2024/02/10 07:49:35;;;;;;;17.15;3.55;;;;;;;10.52;100.00;98499.19;6297063;28;19920;-84
2024/02/10 07:52:38;;;;;;;12.10;4.82;;;;;;;10.49;100.00;98500.28;6286057;28;20136;-83
2024/02/10 07:55:38;;;;;;;;;;;;;;;10.50;100.00;98494.13;6303399;28;20079;-84
2024/02/10 07:58:41;;;;;;;24.23;9.18;;;;;;;10.49;100.00;98484.66;6326319;28;19924;-81
2024/02/10 08:01:44;;;;;;;12.25;4.35;;;;;;;10.46;100.00;98482.31;6281939;28;20052;-84
2024/02/10 08:04:45;;;;;;;14.35;6.07;;;;;;;10.54;100.00;98492.88;6296793;28;20489;-84
2024/02/10 08:07:48;;;;;;;9.85;4.20;;;;;;;10.57;100.00;98489.22;6302575;28;20059;-84
2024/02/10 08:10:49;;;;;;;13.35;3.95;;;;;;;10.65;100.00;98487.59;6302977;28;20052;-84
2024/02/10 08:13:51;;;;;;;4.80;2.88;;;;;;;10.63;100.00;98496.50;6329347;28;20618;-84
2024/02/10 08:16:53;;;;;;;;;;;;;;;10.71;100.00;98499.28;6279602;28;20397;-85
2024/02/10 08:19:57;;;;;;;13.45;3.67;;;;;;;10.88;100.00;98501.25;6311996;28;20007;-84
2024/02/10 08:22:57;;;;;;;7.28;2.83;;;;;;;10.81;100.00;98496.69;6280519;28;20044;-84
2024/02/10 08:25:59;;;;;;;9.82;4.32;;;;;;;10.93;100.00;98500.03;6296433;28;20049;-85
2024/02/10 08:29:00;;;;;;;7.60;3.72;;;;;;;10.96;100.00;98502.38;6291042;28;20169;-86
2024/02/10 08:32:05;;;;;;;8.40;4.05;;;;;;;10.97;100.00;98498.78;6278791;28;20083;-85
2024/02/10 08:35:08;;;;;;;9.95;3.47;;;;;;;10.97;100.00;98504.00;6310584;28;20048;-85
2024/02/10 08:38:10;;;;;;;9.07;3.13;;;;;;;11.07;100.00;98497.03;6304797;28;20491;-87
2024/02/10 08:41:11;;;;;;;5.63;3.30;;;;;;;11.12;100.00;98500.06;6312659;28;20098;-85
2024/02/10 08:44:15;;;;;;;4.70;2.85;;;;;;;11.16;100.00;98487.56;6298454;28;20305;-87
2024/02/10 08:47:18;;;;;;;6.13;3.58;;;;;;;11.16;100.00;98491.00;6286181;28;20044;-86
2024/02/10 08:50:19;;;;;;;5.90;2.60;;;;;;;11.18;100.00;98489.09;6289195;28;20069;-83
2024/02/10 08:53:21;;;;;;;7.05;3.20;;;;;;;11.19;100.00;98488.13;6321341;28;20052;-86
2024/02/10 08:56:22;;;;;;;7.53;2.67;;;;;;;11.25;100.00;98495.41;6285540;28;20550;-83
2024/02/10 08:59:23;;;;;;;4.78;2.90;;;;;;;11.23;100.00;98484.28;6298731;28;20056;-84
2024/02/10 09:02:24;;;;;;;8.63;4.13;;;;;;;11.37;100.00;98492.69;6315214;28;20511;-83
2024/02/10 09:05:26;;;;;;;6.20;3.03;;;;;;;11.31;100.00;98494.03;6325473;28;20059;-87
2024/02/10 09:08:27;;;;;;;4.53;2.38;;;;;;;11.34;100.00;98504.19;6326664;28;20051;-83
2024/02/10 09:11:28;;;;;;;6.20;2.83;;;;;;;11.45;100.00;98500.66;6306791;28;20048;-86
2024/02/10 09:14:33;;;;;;;7.68;3.08;;;;;;;11.62;100.00;98484.28;6284240;28;20044;-85
2024/02/10 09:17:33;;;;;;;3.58;2.42;;;;;;;11.56;100.00;98497.91;6306248;28;20055;-85
2024/02/10 09:20:34;;;;;;;9.07;2.25;;;;;;;11.72;100.00;98493.91;6310259;28;20138;-84
2024/02/10 09:23:39;;;;;;;4.70;2.08;;;;;;;11.75;100.00;98497.06;6322886;28;20052;-84
2024/02/10 09:26:40;;;;;;;10.13;2.88;;;;;;;11.78;100.00;98490.75;6311067;28;20051;-81
2024/02/10 09:29:41;;;;;;;3.65;2.50;;;;;;;11.95;100.00;98492.66;6316313;28;20055;-85
2024/02/10 09:32:45;;;;;;;7.07;3.47;;;;;;;11.89;100.00;98493.22;6305823;28;20139;-86
2024/02/10 09:35:51;;;;;;;9.88;2.53;;;;;;;12.09;100.00;98488.78;6313399;28;20076;-85
2024/02/10 09:38:55;;;;;;;8.30;2.97;;;;;;;12.28;100.00;98488.72;6325299;28;20049;-86
2024/02/10 09:42:03;;;;;;;6.72;3.42;;;;;;;12.16;100.00;98489.06;6312898;28;20178;-85
2024/02/10 09:45:07;;;;;;;5.78;2.95;;;;;;;12.20;100.00;98488.63;6288597;28;20044;-80
2024/02/10 09:48:19;;;;;;;6.53;2.65;;;;;;;12.07;100.00;98490.72;6306381;28;20518;-82
2024/02/10 09:51:20;;;;;;;8.95;3.10;;;;;;;12.17;100.00;98493.28;6315843;28;20457;-83
2024/02/10 09:54:23;;;;;;;6.82;2.85;;;;;;;12.26;100.00;98492.47;6296126;28;20040;-81
2024/02/10 09:57:30;;;;;;;11.20;4.00;;;;;;;12.29;100.00;98503.47;6321090;28;20052;-83
2024/02/10 10:00:32;;;;;;;6.43;2.42;;;;;;;12.24;100.00;98502.25;6303523;28;20093;-81
2024/02/10 10:03:33;;;;;;;6.45;2.75;;;;;;;12.35;100.00;98488.97;6297051;28;20044;-82
2024/02/10 10:06:34;;;;;;;7.00;2.88;;;;;;;12.45;100.00;98495.00;6314872;28;20078;-82
2024/02/10 10:09:35;;;;;;;8.20;2.65;;;;;;;12.37;100.00;98488.84;6281320;28;20134;-79
2024/02/10 10:12:36;;;;;;;5.45;2.58;;;;;;;12.20;100.00;98491.22;6281335;28;20049;-82
2024/02/10 10:15:38;;;;;;;5.25;2.67;;;;;;;12.46;100.00;98486.19;6280798;28;20139;-81
2024/02/10 10:18:41;;;;;;;7.15;2.42;;;;;;;12.53;100.00;98478.59;6300741;28;20067;-88
2024/02/10 10:21:45;;;;;;;9.88;3.28;;;;;;;12.40;100.00;98470.25;6324353;28;20074;-80
2024/02/10 10:24:45;;;;;;;13.68;3.25;;;;;;;12.60;100.00;98481.44;6322841;28;20185;-82
2024/02/10 10:27:47;;;;;;;7.50;2.95;;;;;;;12.69;100.00;98475.34;6323387;28;20593;-89
2024/02/10 10:30:48;;;;;;;6.25;2.70;;;;;;;12.73;100.00;98481.13;6310123;28;20048;-81
2024/02/10 10:33:52;;;;;;;7.82;3.40;;;;;;;12.85;100.00;98470.31;6304277;28;20051;-90
2024/02/10 10:36:54;;;;;;;6.80;2.72;;;;;;;12.70;100.00;98474.38;6299133;28;20110;-82
2024/02/10 10:39:56;;;;;;;8.23;3.08;;;;;;;12.85;100.00;98472.94;6280759;28;20044;-89
2024/02/10 10:43:01;;;;;;;4.47;2.53;;;;;;;12.82;100.00;98469.78;6298868;28;20189;-81
2024/02/10 10:46:04;;;;;;;7.18;2.75;;;;;;;12.89;100.00;98448.09;6299340;28;20485;-92
2024/02/10 10:49:09;;;;;;;7.30;2.55;;;;;;;12.98;100.00;98450.81;6299678;28;20049;-90
2024/02/10 10:52:14;;;;;;;9.40;2.67;;;;;;;13.00;100.00;98457.53;6298606;28;20443;-92
2024/02/10 10:55:16;;;;;;;8.63;3.28;;;;;;;12.93;100.00;98453.03;6305173;28;20048;-82
2024/02/10 10:58:19;;;;;;;;;;;;;;;13.07;100.00;98460.38;6306316;28;20052;-92
2024/02/10 11:01:24;;;;;;;6.40;2.97;;;;;;;12.92;100.00;98460.06;6298488;28;20652;-92
2024/02/10 11:04:30;;;;;;;6.70;2.53;;;;;;;12.84;100.00;98446.91;6298765;28;20052;-91
2024/02/10 11:07:36;;;;;;;7.95;3.13;;;;;;;13.03;100.00;98445.94;6298913;28;20044;-81
2024/02/10 11:10:44;;;;;;;7.00;3.00;;;;;;;13.06;100.00;98459.56;6319956;28;20044;-92
2024/02/10 11:13:47;;;;;;;6.78;2.95;;;;;;;13.12;100.00;98446.88;6318232;28;20489;-81
2024/02/10 11:16:50;;;;;;;6.07;2.80;;;;;;;13.28;100.00;98433.91;6279801;28;20489;-82
2024/02/10 11:20:00;;;;;;;7.30;3.13;;;;;;;13.38;100.00;98433.84;6280809;28;20056;-92
2024/02/10 11:23:18;;;;;;;7.85;3.47;;;;;;;13.35;100.00;98434.16;6298944;28;20435;-84
2024/02/10 11:26:21;;;;;;;12.02;5.55;;;;;;;13.49;100.00;98431.00;6280666;28;20048;-88
2024/02/10 11:29:22;;;;;;;6.80;2.88;;;;;;;13.55;100.00;98430.41;6279812;28;20048;-83
2024/02/10 11:32:23;;;;;;;8.93;3.47;;;;;;;13.65;100.00;98438.16;6289236;28;20044;-84
2024/02/10 11:35:24;;;;;;;6.43;3.08;;;;;;;13.66;100.00;98440.63;6304510;28;20051;-84
2024/02/10 11:38:27;;;;;;;4.95;3.00;;;;;;;13.61;100.00;98432.41;6282245;28;20097;-87
2024/02/10 11:41:30;;;;;;;4.03;2.53;;;;;;;13.58;100.00;98437.94;6280063;28;20044;-84
2024/02/10 11:44:32;;;;;;;4.80;2.60;;;;;;;13.53;100.00;98436.75;6280357;28;20496;-86
2024/02/10 11:47:35;;;;;;;6.90;2.97;;;;;;;13.65;100.00;98435.53;6280763;28;20151;-91
2024/02/10 11:50:42;;;;;;;8.30;3.65;;;;;;;13.70;100.00;98426.25;6280336;28;20202;-84
2024/02/10 11:53:49;;;;;;;5.50;3.65;;;;;;;13.70;100.00;98423.63;6278902;28;20557;-84
2024/02/10 11:56:50;;;;;;;8.00;3.28;;;;;;;13.76;100.00;98419.56;6279851;28;20048;-85
2024/02/10 11:59:53;;;;;;;6.43;3.40;;;;;;;13.68;100.00;98417.72;6298081;28;20121;-84
2024/02/10 12:02:54;;;;;;;9.65;2.70;;;;;;;13.66;100.00;98419.66;6296296;28;20048;-85
2024/02/10 12:05:57;;;;;;;9.00;3.10;;;;;;;13.65;100.00;98415.41;6298906;28;20053;-84
2024/02/10 12:09:00;;;;;;;7.35;3.33;;;;;;;13.73;100.00;98419.06;6308780;28;20040;-84
2024/02/10 12:12:02;;;;;;;10.90;2.92;;;;;;;13.73;100.00;98411.19;6308462;28;20052;-85
2024/02/10 12:15:04;;;;;;;;;;;;;;;13.77;100.00;98418.59;6322928;28;20043;-84
2024/02/10 12:18:07;;;;;;;9.93;3.80;;;;;;;13.93;100.00;98409.19;6312890;28;19919;-84
2024/02/10 12:21:10;;;;;;;9.23;4.07;;;;;;;13.90;100.00;98408.53;6307050;28;20048;-84
2024/02/10 12:24:19;;;;;;;12.98;4.60;;;;;;;14.25;100.00;98403.31;6297631;28;20480;-85
2024/02/10 12:27:25;;;;;;;7.38;3.28;;;;;;;14.27;100.00;98401.34;6327002;27;20427;-85
2024/02/10 12:30:26;;;;;;;6.05;3.22;;;;;;;14.27;100.00;98406.59;6303270;28;20059;-83
2024/02/10 12:33:27;;;;;;;12.50;3.83;;;;;;;14.39;100.00;98396.63;6303548;28;20040;-88
2024/02/10 12:36:33;;;;;;;13.27;4.75;;;;;;;14.50;100.00;98393.72;6314353;28;20181;-85
2024/02/10 12:39:33;;;;;;;6.13;3.08;;;;;;;14.22;100.00;98396.53;6319395;28;20052;-84
2024/02/10 12:42:34;;;;;;;8.35;2.92;;;;;;;14.34;100.00;98398.91;6319221;28;20062;-84
2024/02/10 12:45:43;;;;;;;8.27;3.83;;;;;;;14.31;100.00;98394.81;6319681;28;20056;-82
2024/02/10 12:48:44;;;;;;;8.82;3.45;;;;;;;14.23;100.00;98397.38;6322000;28;20052;-88
2024/02/10 12:51:47;;;;;;;5.93;3.45;;;;;;;14.42;100.00;98393.69;6321347;28;20051;-88
2024/02/10 12:54:48;;;;;;;9.55;3.47;;;;;;;14.37;100.00;98388.09;6312820;28;20518;-87
2024/02/10 12:57:51;;;;;;;9.15;3.30;;;;;;;14.26;100.00;98391.81;6297925;28;20048;-84
2024/02/10 13:00:55;;;;;;;7.53;3.58;;;;;;;14.33;100.00;98387.59;6293526;28;20054;-85
2024/02/10 13:04:02;;;;;;;8.60;3.30;;;;;;;14.32;99.96;98381.50;6302725;28;20482;-84
2024/02/10 13:07:03;;;;;;;9.07;2.45;;;;;;;14.29;100.00;98375.78;6304176;28;20477;-88
2024/02/10 13:10:18;;;;;;;11.10;2.95;;;;;;;14.39;100.00;98378.25;6296513;28;20044;-85
2024/02/10 13:13:21;;;;;;;4.55;2.40;;;;;;;14.37;99.99;98375.81;6305404;28;20080;-86
2024/02/10 13:16:22;;;;;;;10.02;2.95;;;;;;;14.37;100.00;98381.06;6320484;28;20048;-86
2024/02/10 13:19:23;;;;;;;7.32;3.00;;;;;;;14.32;100.00;98372.81;6315321;28;20063;-87
2024/02/10 13:22:23;;;;;;;9.60;3.60;;;;;;;14.46;100.00;98374.03;6303923;28;20063;-87
2024/02/10 13:25:25;;;;;;;5.50;2.85;;;;;;;14.53;100.00;98377.63;6320119;28;20048;-84
2024/02/10 13:28:25;;;;;;;6.85;2.60;;;;;;;14.44;100.00;98381.22;6300026;28;20094;-86
2024/02/10 13:31:26;;;;;;;7.82;2.70;;;;;;;14.59;100.00;98376.22;6312217;28;20469;-84
2024/02/10 13:34:28;;;;;;;6.47;2.92;;;;;;;14.66;100.00;98377.19;6319103;28;20051;-84
2024/02/10 14:00:51;;;;;;;13.23;4.38;;;;;;;15.04;96.01;98357.41;6318512;28;20057;-91
2024/02/10 14:04:13;;;;;;;8.13;3.95;;;;;;;15.05;95.85;98361.69;6302170;28;20049;-86
2024/02/10 14:10:41;;;;;;;7.38;3.10;;;;;;;15.16;94.52;98373.69;6312947;28;20103;-90
2024/02/10 14:13:46;;;;;;;6.80;3.47;;;;;;;15.17;94.37;98367.44;6282949;28;20048;-88
2024/02/10 14:16:48;;;;;;;7.22;2.95;;;;;;;15.01;95.12;98367.41;6304979;28;20048;-88
2024/02/10 14:19:57;;;;;;;;;;;;;;;15.23;95.03;98373.84;6325468;28;20059;-87
2024/02/10 14:23:01;;;;;;;8.80;3.10;;;;;;;15.07;95.95;98367.63;6341365;28;19920;-89
2024/02/10 14:26:12;;;;;;;7.53;2.95;;;;;;;15.11;96.03;98366.31;6306826;28;20048;-89
2024/02/10 14:32:32;;;;;;;10.65;3.17;;;;;;;15.08;95.76;98361.34;6318132;28;20075;-88
2024/02/10 14:35:49;;;;;;;5.85;2.92;;;;;;;15.03;95.43;98376.81;6306852;28;20054;-86
2024/02/10 14:41:57;;;;;;;12.40;3.63;;;;;;;14.96;95.60;98372.34;6300399;28;20048;-88
2024/02/10 14:44:57;;;;;;;14.02;3.60;;;;;;;15.00;95.24;98366.59;6285035;28;20489;-85